createdAt,value
2023-03-22T00:00:20.093Z,1017.2
2023-03-22T00:05:20.099Z,1017.2
2023-03-22T00:10:20.093Z,1017.2
2023-03-22T00:15:20.121Z,1017.1
2023-03-22T00:20:20.813Z,1017.1
2023-03-22T00:25:20.106Z,1017.1
2023-03-22T00:30:20.093Z,1017.1
2023-03-22T00:35:20.119Z,1017
2023-03-22T00:40:20.103Z,1017.1
2023-03-22T00:45:20.089Z,1017.1
2023-03-22T00:50:20.087Z,1017
2023-03-22T00:55:20.098Z,1017
2023-03-22T01:00:20.124Z,1017
2023-03-22T01:05:20.098Z,1016.9
2023-03-22T01:10:20.111Z,1016.8
2023-03-22T01:15:20.124Z,1016.8
2023-03-22T01:20:20.102Z,1016.8
2023-03-22T01:25:20.174Z,1016.7
2023-03-22T01:30:20.191Z,1016.6
2023-03-22T01:35:20.093Z,1016.7
2023-03-22T01:40:20.184Z,1016.6
2023-03-22T01:45:20.113Z,1016.5
2023-03-22T01:50:20.102Z,1016.4
2023-03-22T01:55:20.095Z,1016.4
2023-03-22T02:00:20.093Z,1016.3
2023-03-22T02:05:20.099Z,1016.3
2023-03-22T02:10:20.092Z,1016.3
2023-03-22T02:15:20.092Z,1016.2
2023-03-22T02:20:20.089Z,1016.4
2023-03-22T02:25:20.098Z,1016.3
2023-03-22T02:30:20.117Z,1016.3
2023-03-22T02:35:20.120Z,1016.3
2023-03-22T02:40:20.088Z,1016.3
2023-03-22T02:45:20.102Z,1016.3
2023-03-22T02:50:20.098Z,1016.1
2023-03-22T02:55:20.099Z,1016.2
2023-03-22T03:00:20.102Z,1016.1
2023-03-22T03:05:20.086Z,1016.1
2023-03-22T03:10:20.089Z,1016.1
2023-03-22T03:15:20.096Z,1016.1
2023-03-22T03:20:20.091Z,1016.2
2023-03-22T03:25:20.105Z,1016.1
2023-03-22T03:30:20.091Z,1016.2
2023-03-22T03:35:20.128Z,1016.1
2023-03-22T03:40:20.093Z,1016.1
2023-03-22T03:45:20.118Z,1016.1
2023-03-22T03:50:20.090Z,1016.1
2023-03-22T03:55:20.093Z,1016
2023-03-22T04:00:20.128Z,1016.2
2023-03-22T04:05:20.097Z,1016.2
2023-03-22T04:10:20.095Z,1016.2
2023-03-22T04:15:20.106Z,1016.3
2023-03-22T04:20:20.088Z,1016.3
2023-03-22T04:25:20.099Z,1016.3
2023-03-22T04:30:20.261Z,1016.1
2023-03-22T04:35:20.125Z,1016.1
2023-03-22T04:40:20.101Z,1016.1
2023-03-22T04:45:20.101Z,1016.1
2023-03-22T04:50:20.099Z,1016.1
2023-03-22T04:55:20.103Z,1015.9
2023-03-22T05:00:20.094Z,1015.8
2023-03-22T05:05:20.100Z,1015.7
2023-03-22T05:10:20.093Z,1015.5
2023-03-22T05:15:20.099Z,1015.6
2023-03-22T05:20:20.097Z,1015.6
2023-03-22T05:25:20.092Z,1015.6
2023-03-22T05:30:20.099Z,1015.7
2023-03-22T05:35:20.128Z,1015.7
2023-03-22T05:40:20.098Z,1015.7
2023-03-22T05:45:20.116Z,1015.7
2023-03-22T05:50:20.098Z,1015.7
2023-03-22T05:55:20.113Z,1015.8
2023-03-22T06:00:20.104Z,1015.8
2023-03-22T06:05:20.123Z,1015.9
2023-03-22T06:10:20.100Z,1015.9
2023-03-22T06:15:20.102Z,1016
2023-03-22T06:20:20.094Z,1015.8
2023-03-22T06:25:20.101Z,1015.8
2023-03-22T06:30:20.091Z,1015.8
2023-03-22T06:35:20.190Z,1015.8
2023-03-22T06:40:20.095Z,1015.9
2023-03-22T06:45:20.083Z,1016
2023-03-22T06:50:20.096Z,1016
2023-03-22T06:55:20.100Z,1016.1
2023-03-22T07:00:20.084Z,1016.1
2023-03-22T07:05:20.095Z,1016.1
2023-03-22T07:10:20.104Z,1016.1
2023-03-22T07:15:20.132Z,1016.1
2023-03-22T07:20:20.137Z,1016.1
2023-03-22T07:25:20.093Z,1016.1
2023-03-22T07:30:20.096Z,1016
2023-03-22T07:35:20.120Z,1015.9
2023-03-22T07:40:20.115Z,1015.9
2023-03-22T07:45:20.124Z,1015.9
2023-03-22T07:50:20.098Z,1015.9
2023-03-22T07:55:20.108Z,1015.9
2023-03-22T08:00:20.109Z,1015.9
2023-03-22T08:05:20.108Z,1015.9
2023-03-22T08:10:20.118Z,1015.8
2023-03-22T08:15:22.475Z,1015.8
2023-03-22T08:20:20.115Z,1015.8
2023-03-22T08:25:20.104Z,1015.9
2023-03-22T08:30:20.108Z,1015.9
2023-03-22T08:35:20.110Z,1015.9
2023-03-22T08:40:20.188Z,1015.8
2023-03-22T08:45:20.103Z,1015.8
2023-03-22T08:50:20.091Z,1015.8
2023-03-22T08:55:20.106Z,1015.7
2023-03-22T09:00:20.095Z,1015.8
2023-03-22T09:05:20.100Z,1015.8
2023-03-22T09:10:20.086Z,1015.8
2023-03-22T09:15:20.100Z,1015.7
2023-03-22T09:20:20.099Z,1015.7
2023-03-22T09:25:20.083Z,1015.7
2023-03-22T09:30:20.090Z,1015.6
2023-03-22T09:35:20.186Z,1015.6
2023-03-22T09:40:20.090Z,1015.5
2023-03-22T09:45:20.106Z,1015.4
2023-03-22T09:50:20.091Z,1015.4
2023-03-22T09:55:20.095Z,1015.3
2023-03-22T10:00:20.163Z,1015.3
2023-03-22T10:05:20.095Z,1015.2
2023-03-22T10:10:20.275Z,1015.2
2023-03-22T10:15:20.116Z,1015.1
2023-03-22T10:20:20.090Z,1015.1
2023-03-22T10:25:20.096Z,1015.1
2023-03-22T10:30:20.088Z,1015
2023-03-22T10:35:20.109Z,1014.9
2023-03-22T10:40:20.080Z,1015
2023-03-22T10:45:20.093Z,1014.8
2023-03-22T10:50:20.092Z,1014.8
2023-03-22T10:55:20.092Z,1014.8
2023-03-22T11:00:20.090Z,1014.8
2023-03-22T11:05:20.102Z,1014.9
2023-03-22T11:10:20.136Z,1014.8
2023-03-22T11:15:20.083Z,1014.8
2023-03-22T11:20:20.127Z,1014.6
2023-03-22T11:25:20.092Z,1014.6
2023-03-22T11:30:20.145Z,1014.7
2023-03-22T11:35:20.137Z,1014.6
2023-03-22T11:40:20.092Z,1014.5
2023-03-22T11:45:20.097Z,1014.5
2023-03-22T11:50:20.096Z,1014.4
2023-03-22T11:55:20.116Z,1014.4
2023-03-22T12:00:20.153Z,1014.3
2023-03-22T12:05:20.174Z,1014.3
2023-03-22T12:10:20.099Z,1014.1
2023-03-22T12:15:20.090Z,1014.1
2023-03-22T12:20:20.106Z,1014
2023-03-22T12:25:20.108Z,1013.9
2023-03-22T12:30:20.094Z,1013.9
2023-03-22T12:35:20.122Z,1013.9
2023-03-22T12:40:20.088Z,1013.8
2023-03-22T12:45:20.101Z,1013.7
2023-03-22T12:50:20.103Z,1013.7
2023-03-22T12:55:20.102Z,1013.7
2023-03-22T13:00:20.113Z,1013.6
2023-03-22T13:05:20.099Z,1013.6
2023-03-22T13:10:20.092Z,1013.5
2023-03-22T13:15:23.800Z,1013.5
2023-03-22T13:20:20.102Z,1013.4
2023-03-22T13:25:20.139Z,1013.5
2023-03-22T13:30:20.098Z,1013.5
2023-03-22T13:35:20.121Z,1013.3
2023-03-22T13:40:20.091Z,1013.3
2023-03-22T13:45:20.102Z,1013.3
2023-03-22T13:50:20.098Z,1013.2
2023-03-22T13:55:20.093Z,1013.1
2023-03-22T14:00:20.739Z,1013.1
2023-03-22T14:05:20.093Z,1013
2023-03-22T14:10:20.100Z,1013
2023-03-22T14:15:20.108Z,1012.9
2023-03-22T14:20:20.112Z,1012.9
2023-03-22T14:55:20.113Z,1012.5
2023-03-22T15:00:20.103Z,1012.5
2023-03-22T15:05:20.106Z,1012.5
2023-03-22T15:10:20.113Z,1012.4
2023-03-22T15:15:20.116Z,1012.3
2023-03-22T15:20:20.107Z,1012.2
2023-03-22T15:25:20.106Z,1012.3
2023-03-22T15:30:20.114Z,1012.2
2023-03-22T15:35:20.117Z,1012
2023-03-22T15:40:20.101Z,1012.1
2023-03-22T15:45:20.120Z,1012.1
2023-03-22T15:50:20.109Z,1012.1
2023-03-22T15:55:20.104Z,1012.1
2023-03-22T16:00:20.134Z,1012
2023-03-22T16:05:20.097Z,1012.1
2023-03-22T16:10:20.079Z,1012
2023-03-22T16:15:20.089Z,1012
2023-03-22T16:20:20.112Z,1012
2023-03-22T16:25:20.107Z,1011.9
2023-03-22T16:30:20.093Z,1012
2023-03-22T16:35:20.091Z,1012
2023-03-22T16:40:20.097Z,1012.1
2023-03-22T16:45:20.107Z,1012.2
2023-03-22T16:50:20.083Z,1012.2
2023-03-22T16:55:20.104Z,1012.2
2023-03-22T17:00:20.108Z,1012.2
2023-03-22T17:05:21.146Z,1012.3
2023-03-22T17:10:20.093Z,1012.3
2023-03-22T17:15:20.106Z,1012.3
2023-03-22T17:20:20.085Z,1012.3
2023-03-22T17:25:20.179Z,1012.3
2023-03-22T17:30:20.108Z,1012.3
2023-03-22T17:35:20.091Z,1012.3
2023-03-22T17:40:31.726Z,1012.3
2023-03-22T17:45:20.096Z,1012.4
2023-03-22T17:50:20.095Z,1012.5
2023-03-22T17:55:26.925Z,1012.4
2023-03-22T18:00:20.106Z,1012.4
2023-03-22T18:05:27.995Z,1012.4
2023-03-22T18:10:20.077Z,1012.5
2023-03-22T18:15:20.100Z,1012.6
2023-03-22T18:20:34.179Z,1012.6
2023-03-22T18:25:20.464Z,1012.6
2023-03-22T18:30:20.125Z,1012.8
2023-03-22T18:35:20.090Z,1012.9
2023-03-22T18:40:54.362Z,1012.9
2023-03-22T18:45:21.066Z,1012.9
2023-03-22T18:50:20.100Z,1012.9
2023-03-22T18:55:25.249Z,1012.9
2023-03-22T19:00:20.097Z,1012.8
2023-03-22T19:05:20.096Z,1012.9
2023-03-22T19:10:20.092Z,1012.8
2023-03-22T19:15:42.248Z,1012.8
2023-03-22T19:20:20.260Z,1012.8
2023-03-22T19:25:20.105Z,1012.8
2023-03-22T19:30:20.099Z,1012.8
2023-03-22T19:35:20.102Z,1012.8
2023-03-22T19:41:15.260Z,1012.8
2023-03-22T19:45:20.111Z,1012.7
2023-03-22T19:50:20.093Z,1012.6
2023-03-22T19:55:20.090Z,1012.6
2023-03-22T20:00:44.830Z,1012.7
2023-03-22T20:05:20.101Z,1012.6
2023-03-22T20:10:20.104Z,1012.7
2023-03-22T20:15:20.097Z,1012.7
2023-03-22T20:20:20.110Z,1012.6
2023-03-22T20:25:20.100Z,1012.6
2023-03-22T20:30:20.097Z,1012.6
2023-03-22T20:35:20.097Z,1012.5
2023-03-22T20:40:20.088Z,1012.5
2023-03-22T20:45:20.102Z,1012.5
2023-03-22T20:50:20.088Z,1012.5
2023-03-22T20:55:20.096Z,1012.3
2023-03-22T21:00:20.097Z,1012.4
2023-03-22T21:05:20.090Z,1012.4
2023-03-22T21:10:20.100Z,1012.3
2023-03-22T21:15:20.091Z,1012.4
2023-03-22T21:20:27.004Z,1012.3
2023-03-22T21:25:20.097Z,1012.4
2023-03-22T21:30:20.094Z,1012.3
2023-03-22T21:35:20.104Z,1012.4
2023-03-22T21:40:20.106Z,1012.4
2023-03-22T21:45:20.107Z,1012.4
2023-03-22T21:50:20.093Z,1012.4
2023-03-22T21:55:20.107Z,1012.3
2023-03-22T22:00:20.107Z,1012.4
2023-03-22T22:05:20.099Z,1012.4
2023-03-22T22:10:20.110Z,1012.4
2023-03-22T22:15:20.102Z,1012.3
2023-03-22T22:20:20.105Z,1012.3
2023-03-22T22:25:20.092Z,1012.3
2023-03-22T22:30:20.089Z,1012.2
2023-03-22T22:35:20.122Z,1012.2
2023-03-22T22:40:20.091Z,1012.3
2023-03-22T22:45:20.099Z,1012.3
2023-03-22T22:50:20.091Z,1012.2
2023-03-22T22:55:20.101Z,1012.3
2023-03-22T23:00:20.092Z,1012.4
2023-03-22T23:05:20.093Z,1012.4
2023-03-22T23:10:20.107Z,1012.4
2023-03-22T23:15:26.925Z,1012.4
2023-03-22T23:20:20.091Z,1012.4
2023-03-22T23:25:20.089Z,1012.3
2023-03-22T23:30:20.099Z,1012.2
2023-03-22T23:35:20.131Z,1012.2
2023-03-22T23:40:20.086Z,1012.2
2023-03-22T23:45:20.099Z,1012.1
2023-03-22T23:50:20.098Z,1012.1
2023-03-22T23:55:20.110Z,1012
